sensor_id;sensor_type;location;lat;lon;timestamp;P1;durP1;ratioP1;P2;durP2;ratioP2
76073;SDS011;64776;42.636;24.358;2023-03-14T00:01:44;25.90;;;9.48;;
76073;SDS011;64776;42.636;24.358;2023-03-14T00:04:45;22.40;;;10.05;;
76073;SDS011;64776;42.636;24.358;2023-03-14T00:07:47;27.02;;;11.05;;
76073;SDS011;64776;42.636;24.358;2023-03-14T00:10:48;24.48;;;8.80;;
76073;SDS011;64776;42.636;24.358;2023-03-14T00:13:49;22.73;;;9.38;;
76073;SDS011;64776;42.636;24.358;2023-03-14T00:16:50;14.88;;;5.65;;
76073;SDS011;64776;42.636;24.358;2023-03-14T00:19:50;36.80;;;14.57;;
76073;SDS011;64776;42.636;24.358;2023-03-14T00:22:53;11.02;;;5.18;;
76073;SDS011;64776;42.636;24.358;2023-03-14T00:25:53;14.35;;;5.05;;
76073;SDS011;64776;42.636;24.358;2023-03-14T00:28:58;14.63;;;5.72;;
76073;SDS011;64776;42.636;24.358;2023-03-14T00:32:00;18.55;;;7.35;;
76073;SDS011;64776;42.636;24.358;2023-03-14T00:35:01;17.50;;;5.70;;
76073;SDS011;64776;42.636;24.358;2023-03-14T00:38:03;24.42;;;10.02;;
76073;SDS011;64776;42.636;24.358;2023-03-14T00:41:04;13.38;;;6.15;;
76073;SDS011;64776;42.636;24.358;2023-03-14T00:44:06;21.77;;;6.28;;
76073;SDS011;64776;42.636;24.358;2023-03-14T00:47:07;7.35;;;3.38;;
76073;SDS011;64776;42.636;24.358;2023-03-14T00:50:08;15.95;;;5.75;;
76073;SDS011;64776;42.636;24.358;2023-03-14T00:53:11;8.82;;;4.15;;
76073;SDS011;64776;42.636;24.358;2023-03-14T00:56:12;11.63;;;5.53;;
76073;SDS011;64776;42.636;24.358;2023-03-14T00:59:15;10.82;;;4.40;;
76073;SDS011;64776;42.636;24.358;2023-03-14T01:02:16;15.50;;;6.68;;
76073;SDS011;64776;42.636;24.358;2023-03-14T01:05:17;17.90;;;8.85;;
76073;SDS011;64776;42.636;24.358;2023-03-14T01:08:19;15.57;;;6.38;;
76073;SDS011;64776;42.636;24.358;2023-03-14T01:11:21;15.20;;;5.47;;
76073;SDS011;64776;42.636;24.358;2023-03-14T01:14:23;16.23;;;5.93;;
76073;SDS011;64776;42.636;24.358;2023-03-14T01:17:24;15.70;;;6.60;;
76073;SDS011;64776;42.636;24.358;2023-03-14T01:20:25;17.13;;;7.22;;
76073;SDS011;64776;42.636;24.358;2023-03-14T01:23:27;14.82;;;5.25;;
76073;SDS011;64776;42.636;24.358;2023-03-14T01:26:29;14.43;;;5.03;;
76073;SDS011;64776;42.636;24.358;2023-03-14T01:29:31;8.10;;;3.47;;
76073;SDS011;64776;42.636;24.358;2023-03-14T01:32:31;7.47;;;3.25;;
76073;SDS011;64776;42.636;24.358;2023-03-14T01:35:32;13.35;;;5.80;;
76073;SDS011;64776;42.636;24.358;2023-03-14T01:38:35;15.90;;;6.50;;
76073;SDS011;64776;42.636;24.358;2023-03-14T01:41:38;12.85;;;5.57;;
76073;SDS011;64776;42.636;24.358;2023-03-14T01:44:47;22.42;;;7.88;;
76073;SDS011;64776;42.636;24.358;2023-03-14T01:47:49;18.40;;;6.88;;
76073;SDS011;64776;42.636;24.358;2023-03-14T01:50:50;34.65;;;13.38;;
76073;SDS011;64776;42.636;24.358;2023-03-14T01:53:52;34.03;;;11.70;;
76073;SDS011;64776;42.636;24.358;2023-03-14T01:57:01;16.80;;;8.50;;
76073;SDS011;64776;42.636;24.358;2023-03-14T02:00:06;20.13;;;7.78;;
76073;SDS011;64776;42.636;24.358;2023-03-14T02:03:09;22.27;;;8.07;;
76073;SDS011;64776;42.636;24.358;2023-03-14T02:06:14;17.50;;;7.85;;
76073;SDS011;64776;42.636;24.358;2023-03-14T02:09:19;28.52;;;9.88;;
76073;SDS011;64776;42.636;24.358;2023-03-14T02:12:21;30.27;;;11.93;;
76073;SDS011;64776;42.636;24.358;2023-03-14T02:15:22;11.38;;;4.75;;
76073;SDS011;64776;42.636;24.358;2023-03-14T02:18:23;10.68;;;4.65;;
76073;SDS011;64776;42.636;24.358;2023-03-14T02:21:26;14.30;;;4.72;;
76073;SDS011;64776;42.636;24.358;2023-03-14T02:24:38;13.38;;;4.13;;
76073;SDS011;64776;42.636;24.358;2023-03-14T02:27:44;5.57;;;1.67;;
76073;SDS011;64776;42.636;24.358;2023-03-14T02:30:47;3.90;;;1.88;;
76073;SDS011;64776;42.636;24.358;2023-03-14T02:33:48;4.40;;;1.75;;
76073;SDS011;64776;42.636;24.358;2023-03-14T02:36:49;42.78;;;11.55;;
76073;SDS011;64776;42.636;24.358;2023-03-14T02:39:50;23.20;;;7.65;;
76073;SDS011;64776;42.636;24.358;2023-03-14T02:42:53;17.48;;;7.22;;
76073;SDS011;64776;42.636;24.358;2023-03-14T02:45:53;12.88;;;4.07;;
76073;SDS011;64776;42.636;24.358;2023-03-14T02:48:55;17.83;;;8.93;;
76073;SDS011;64776;42.636;24.358;2023-03-14T02:51:58;36.05;;;15.38;;
76073;SDS011;64776;42.636;24.358;2023-03-14T02:54:59;23.20;;;8.98;;
76073;SDS011;64776;42.636;24.358;2023-03-14T02:58:01;20.95;;;7.63;;
76073;SDS011;64776;42.636;24.358;2023-03-14T03:01:02;25.27;;;10.45;;
76073;SDS011;64776;42.636;24.358;2023-03-14T03:04:03;42.63;;;14.02;;
76073;SDS011;64776;42.636;24.358;2023-03-14T03:07:04;30.27;;;13.50;;
76073;SDS011;64776;42.636;24.358;2023-03-14T03:10:06;14.68;;;6.13;;
76073;SDS011;64776;42.636;24.358;2023-03-14T03:13:08;19.98;;;5.78;;
76073;SDS011;64776;42.636;24.358;2023-03-14T03:16:09;14.65;;;5.30;;
76073;SDS011;64776;42.636;24.358;2023-03-14T03:19:10;20.95;;;7.35;;
76073;SDS011;64776;42.636;24.358;2023-03-14T03:22:11;28.25;;;10.15;;
76073;SDS011;64776;42.636;24.358;2023-03-14T03:25:12;16.75;;;7.47;;
76073;SDS011;64776;42.636;24.358;2023-03-14T03:28:14;7.65;;;3.35;;
76073;SDS011;64776;42.636;24.358;2023-03-14T03:31:15;10.40;;;4.00;;
76073;SDS011;64776;42.636;24.358;2023-03-14T03:34:16;24.13;;;7.35;;
76073;SDS011;64776;42.636;24.358;2023-03-14T03:37:17;15.10;;;5.32;;
76073;SDS011;64776;42.636;24.358;2023-03-14T03:40:17;21.30;;;7.63;;
76073;SDS011;64776;42.636;24.358;2023-03-14T03:43:20;35.13;;;11.73;;
76073;SDS011;64776;42.636;24.358;2023-03-14T03:46:21;19.67;;;8.02;;
76073;SDS011;64776;42.636;24.358;2023-03-14T03:49:22;31.15;;;10.30;;
76073;SDS011;64776;42.636;24.358;2023-03-14T03:52:22;20.38;;;9.68;;
76073;SDS011;64776;42.636;24.358;2023-03-14T03:55:23;16.42;;;7.13;;
76073;SDS011;64776;42.636;24.358;2023-03-14T03:58:25;15.38;;;4.93;;
76073;SDS011;64776;42.636;24.358;2023-03-14T04:01:26;21.33;;;8.50;;
76073;SDS011;64776;42.636;24.358;2023-03-14T04:04:27;16.63;;;5.95;;
76073;SDS011;64776;42.636;24.358;2023-03-14T04:07:30;6.68;;;3.25;;
76073;SDS011;64776;42.636;24.358;2023-03-14T04:10:33;15.13;;;4.60;;
76073;SDS011;64776;42.636;24.358;2023-03-14T04:13:36;28.20;;;9.68;;
76073;SDS011;64776;42.636;24.358;2023-03-14T04:16:37;42.42;;;14.80;;
76073;SDS011;64776;42.636;24.358;2023-03-14T04:19:37;28.77;;;11.13;;
76073;SDS011;64776;42.636;24.358;2023-03-14T04:22:38;10.20;;;3.95;;
76073;SDS011;64776;42.636;24.358;2023-03-14T04:25:39;16.38;;;6.63;;
76073;SDS011;64776;42.636;24.358;2023-03-14T04:28:42;16.13;;;9.40;;
76073;SDS011;64776;42.636;24.358;2023-03-14T04:31:43;19.38;;;7.90;;
76073;SDS011;64776;42.636;24.358;2023-03-14T04:34:44;20.77;;;7.32;;
76073;SDS011;64776;42.636;24.358;2023-03-14T04:37:48;35.97;;;15.02;;
76073;SDS011;64776;42.636;24.358;2023-03-14T04:40:49;29.33;;;14.32;;
76073;SDS011;64776;42.636;24.358;2023-03-14T04:44:09;29.83;;;12.88;;
76073;SDS011;64776;42.636;24.358;2023-03-14T04:47:10;17.02;;;7.93;;
76073;SDS011;64776;42.636;24.358;2023-03-14T04:50:11;23.42;;;10.93;;
76073;SDS011;64776;42.636;24.358;2023-03-14T04:53:12;21.23;;;8.63;;
76073;SDS011;64776;42.636;24.358;2023-03-14T04:56:13;19.27;;;7.47;;
76073;SDS011;64776;42.636;24.358;2023-03-14T04:59:15;24.10;;;9.90;;
76073;SDS011;64776;42.636;24.358;2023-03-14T05:02:16;94.97;;;33.38;;
76073;SDS011;64776;42.636;24.358;2023-03-14T05:05:17;84.90;;;33.83;;
76073;SDS011;64776;42.636;24.358;2023-03-14T05:08:17;70.30;;;22.92;;
76073;SDS011;64776;42.636;24.358;2023-03-14T05:11:18;67.25;;;26.92;;
76073;SDS011;64776;42.636;24.358;2023-03-14T05:14:21;58.40;;;24.83;;
76073;SDS011;64776;42.636;24.358;2023-03-14T05:17:21;50.42;;;19.33;;
76073;SDS011;64776;42.636;24.358;2023-03-14T05:20:22;36.22;;;18.23;;
76073;SDS011;64776;42.636;24.358;2023-03-14T05:23:23;36.47;;;13.05;;
76073;SDS011;64776;42.636;24.358;2023-03-14T05:26:24;29.45;;;12.15;;
76073;SDS011;64776;42.636;24.358;2023-03-14T05:29:26;29.17;;;12.35;;
76073;SDS011;64776;42.636;24.358;2023-03-14T05:32:27;31.85;;;12.35;;
76073;SDS011;64776;42.636;24.358;2023-03-14T05:35:28;33.95;;;15.57;;
76073;SDS011;64776;42.636;24.358;2023-03-14T05:38:29;28.05;;;13.75;;
76073;SDS011;64776;42.636;24.358;2023-03-14T05:41:31;57.20;;;25.60;;
76073;SDS011;64776;42.636;24.358;2023-03-14T05:44:33;71.72;;;31.10;;
76073;SDS011;64776;42.636;24.358;2023-03-14T05:47:34;78.07;;;30.25;;
76073;SDS011;64776;42.636;24.358;2023-03-14T05:50:34;43.15;;;18.00;;
76073;SDS011;64776;42.636;24.358;2023-03-14T05:53:35;44.97;;;19.83;;
76073;SDS011;64776;42.636;24.358;2023-03-14T05:56:36;31.58;;;15.18;;
76073;SDS011;64776;42.636;24.358;2023-03-14T05:59:38;41.22;;;21.33;;
76073;SDS011;64776;42.636;24.358;2023-03-14T06:02:39;62.28;;;28.50;;
76073;SDS011;64776;42.636;24.358;2023-03-14T06:05:40;75.90;;;30.98;;
76073;SDS011;64776;42.636;24.358;2023-03-14T06:08:41;67.47;;;30.25;;
76073;SDS011;64776;42.636;24.358;2023-03-14T06:11:42;42.33;;;21.80;;
76073;SDS011;64776;42.636;24.358;2023-03-14T06:14:44;30.10;;;13.13;;
76073;SDS011;64776;42.636;24.358;2023-03-14T06:17:44;24.30;;;11.30;;
76073;SDS011;64776;42.636;24.358;2023-03-14T06:20:45;30.98;;;8.90;;
76073;SDS011;64776;42.636;24.358;2023-03-14T06:23:46;21.60;;;9.40;;
76073;SDS011;64776;42.636;24.358;2023-03-14T06:26:47;16.35;;;7.68;;
76073;SDS011;64776;42.636;24.358;2023-03-14T06:29:49;23.27;;;8.30;;
76073;SDS011;64776;42.636;24.358;2023-03-14T06:32:50;22.92;;;8.70;;
76073;SDS011;64776;42.636;24.358;2023-03-14T06:35:51;25.17;;;8.10;;
76073;SDS011;64776;42.636;24.358;2023-03-14T06:38:52;29.40;;;12.40;;
76073;SDS011;64776;42.636;24.358;2023-03-14T06:41:52;20.42;;;10.98;;
76073;SDS011;64776;42.636;24.358;2023-03-14T06:44:55;22.85;;;10.95;;
76073;SDS011;64776;42.636;24.358;2023-03-14T06:47:55;20.70;;;9.75;;
76073;SDS011;64776;42.636;24.358;2023-03-14T06:50:56;16.33;;;7.60;;
76073;SDS011;64776;42.636;24.358;2023-03-14T06:53:57;21.27;;;9.13;;
76073;SDS011;64776;42.636;24.358;2023-03-14T06:56:58;28.85;;;12.27;;
76073;SDS011;64776;42.636;24.358;2023-03-14T07:00:00;23.58;;;12.50;;
76073;SDS011;64776;42.636;24.358;2023-03-14T07:03:01;30.85;;;14.52;;
76073;SDS011;64776;42.636;24.358;2023-03-14T07:06:02;33.15;;;15.15;;
76073;SDS011;64776;42.636;24.358;2023-03-14T07:09:03;26.35;;;11.70;;
76073;SDS011;64776;42.636;24.358;2023-03-14T07:12:04;22.63;;;8.50;;
76073;SDS011;64776;42.636;24.358;2023-03-14T07:15:07;23.92;;;10.13;;
76073;SDS011;64776;42.636;24.358;2023-03-14T07:18:08;18.63;;;9.73;;
76073;SDS011;64776;42.636;24.358;2023-03-14T07:21:09;28.00;;;11.68;;
76073;SDS011;64776;42.636;24.358;2023-03-14T07:24:10;33.75;;;13.45;;
76073;SDS011;64776;42.636;24.358;2023-03-14T07:27:11;36.25;;;14.38;;
76073;SDS011;64776;42.636;24.358;2023-03-14T07:30:13;24.85;;;9.85;;
76073;SDS011;64776;42.636;24.358;2023-03-14T07:33:14;34.35;;;10.68;;
76073;SDS011;64776;42.636;24.358;2023-03-14T07:36:15;35.17;;;9.88;;
76073;SDS011;64776;42.636;24.358;2023-03-14T07:39:16;11.15;;;4.68;;
76073;SDS011;64776;42.636;24.358;2023-03-14T07:42:17;6.40;;;3.35;;
76073;SDS011;64776;42.636;24.358;2023-03-14T07:45:19;6.63;;;2.33;;
76073;SDS011;64776;42.636;24.358;2023-03-14T07:48:20;5.47;;;1.85;;
76073;SDS011;64776;42.636;24.358;2023-03-14T07:51:21;5.68;;;2.40;;
76073;SDS011;64776;42.636;24.358;2023-03-14T07:54:22;5.75;;;1.88;;
76073;SDS011;64776;42.636;24.358;2023-03-14T07:57:22;6.47;;;2.42;;
76073;SDS011;64776;42.636;24.358;2023-03-14T08:00:25;6.95;;;2.03;;
76073;SDS011;64776;42.636;24.358;2023-03-14T08:03:26;6.30;;;2.03;;
76073;SDS011;64776;42.636;24.358;2023-03-14T08:06:27;5.03;;;1.98;;
76073;SDS011;64776;42.636;24.358;2023-03-14T08:09:27;4.70;;;1.55;;
76073;SDS011;64776;42.636;24.358;2023-03-14T08:12:28;3.97;;;1.60;;
76073;SDS011;64776;42.636;24.358;2023-03-14T08:15:31;6.10;;;2.05;;
76073;SDS011;64776;42.636;24.358;2023-03-14T08:18:32;66.45;;;8.20;;
76073;SDS011;64776;42.636;24.358;2023-03-14T08:21:32;4.95;;;1.65;;
76073;SDS011;64776;42.636;24.358;2023-03-14T08:24:34;12.13;;;4.10;;
76073;SDS011;64776;42.636;24.358;2023-03-14T08:27:34;6.05;;;1.40;;
76073;SDS011;64776;42.636;24.358;2023-03-14T08:30:37;12.60;;;4.80;;
76073;SDS011;64776;42.636;24.358;2023-03-14T08:33:37;7.57;;;2.42;;
76073;SDS011;64776;42.636;24.358;2023-03-14T08:36:38;15.43;;;5.22;;
76073;SDS011;64776;42.636;24.358;2023-03-14T08:39:39;9.35;;;2.65;;
76073;SDS011;64776;42.636;24.358;2023-03-14T08:42:40;8.73;;;3.20;;
76073;SDS011;64776;42.636;24.358;2023-03-14T08:45:42;8.88;;;2.50;;
76073;SDS011;64776;42.636;24.358;2023-03-14T08:48:43;20.10;;;4.75;;
76073;SDS011;64776;42.636;24.358;2023-03-14T08:51:44;25.83;;;4.75;;
76073;SDS011;64776;42.636;24.358;2023-03-14T08:54:45;10.27;;;5.22;;
76073;SDS011;64776;42.636;24.358;2023-03-14T08:57:46;8.38;;;2.17;;
76073;SDS011;64776;42.636;24.358;2023-03-14T09:00:48;5.97;;;1.88;;
76073;SDS011;64776;42.636;24.358;2023-03-14T09:03:49;5.45;;;1.95;;
76073;SDS011;64776;42.636;24.358;2023-03-14T09:06:50;7.10;;;1.98;;
76073;SDS011;64776;42.636;24.358;2023-03-14T09:09:51;6.38;;;2.15;;
76073;SDS011;64776;42.636;24.358;2023-03-14T09:12:51;12.55;;;3.03;;
76073;SDS011;64776;42.636;24.358;2023-03-14T09:15:54;7.43;;;1.80;;
76073;SDS011;64776;42.636;24.358;2023-03-14T09:18:56;10.15;;;2.33;;
76073;SDS011;64776;42.636;24.358;2023-03-14T09:21:57;2.72;;;1.08;;
76073;SDS011;64776;42.636;24.358;2023-03-14T09:24:58;7.78;;;3.10;;
76073;SDS011;64776;42.636;24.358;2023-03-14T09:27:58;4.60;;;1.42;;
76073;SDS011;64776;42.636;24.358;2023-03-14T09:31:06;6.75;;;2.00;;
76073;SDS011;64776;42.636;24.358;2023-03-14T09:34:07;5.80;;;2.10;;
76073;SDS011;64776;42.636;24.358;2023-03-14T09:37:08;7.25;;;2.00;;
76073;SDS011;64776;42.636;24.358;2023-03-14T09:40:11;6.30;;;3.13;;
76073;SDS011;64776;42.636;24.358;2023-03-14T09:46:17;7.90;;;2.25;;
76073;SDS011;64776;42.636;24.358;2023-03-14T09:49:19;11.05;;;4.28;;
76073;SDS011;64776;42.636;24.358;2023-03-14T09:52:24;7.32;;;2.75;;
76073;SDS011;64776;42.636;24.358;2023-03-14T09:55:30;9.20;;;2.13;;
76073;SDS011;64776;42.636;24.358;2023-03-14T09:58:32;5.20;;;1.73;;
76073;SDS011;64776;42.636;24.358;2023-03-14T10:01:34;5.78;;;2.35;;
76073;SDS011;64776;42.636;24.358;2023-03-14T10:04:35;8.63;;;4.45;;
76073;SDS011;64776;42.636;24.358;2023-03-14T10:07:37;6.57;;;2.60;;
76073;SDS011;64776;42.636;24.358;2023-03-14T10:10:38;9.35;;;3.38;;
76073;SDS011;64776;42.636;24.358;2023-03-14T10:13:46;5.35;;;2.00;;
76073;SDS011;64776;42.636;24.358;2023-03-14T10:16:50;4.22;;;1.65;;
76073;SDS011;64776;42.636;24.358;2023-03-14T10:19:52;3.95;;;1.30;;
76073;SDS011;64776;42.636;24.358;2023-03-14T10:22:53;6.97;;;1.90;;
76073;SDS011;64776;42.636;24.358;2023-03-14T10:26:00;6.47;;;1.65;;
76073;SDS011;64776;42.636;24.358;2023-03-14T10:29:08;5.35;;;1.42;;
76073;SDS011;64776;42.636;24.358;2023-03-14T10:32:18;5.07;;;1.30;;
76073;SDS011;64776;42.636;24.358;2023-03-14T10:35:20;9.90;;;3.35;;
76073;SDS011;64776;42.636;24.358;2023-03-14T10:38:23;4.72;;;1.55;;
76073;SDS011;64776;42.636;24.358;2023-03-14T10:41:26;8.73;;;1.33;;
76073;SDS011;64776;42.636;24.358;2023-03-14T10:44:31;4.55;;;1.20;;
76073;SDS011;64776;42.636;24.358;2023-03-14T10:47:35;4.82;;;1.20;;
76073;SDS011;64776;42.636;24.358;2023-03-14T10:50:36;11.00;;;3.08;;
76073;SDS011;64776;42.636;24.358;2023-03-14T10:53:39;6.38;;;1.88;;
76073;SDS011;64776;42.636;24.358;2023-03-14T10:56:55;14.20;;;5.12;;
76073;SDS011;64776;42.636;24.358;2023-03-14T10:59:57;14.82;;;5.25;;
76073;SDS011;64776;42.636;24.358;2023-03-14T11:03:02;8.32;;;2.72;;
76073;SDS011;64776;42.636;24.358;2023-03-14T11:06:10;13.35;;;3.42;;
76073;SDS011;64776;42.636;24.358;2023-03-14T11:09:18;13.27;;;4.15;;
76073;SDS011;64776;42.636;24.358;2023-03-14T11:12:39;11.40;;;6.38;;
76073;SDS011;64776;42.636;24.358;2023-03-14T11:15:51;15.32;;;5.95;;
76073;SDS011;64776;42.636;24.358;2023-03-14T11:19:15;11.80;;;5.03;;
76073;SDS011;64776;42.636;24.358;2023-03-14T11:22:31;29.40;;;12.60;;
76073;SDS011;64776;42.636;24.358;2023-03-14T11:25:41;19.13;;;7.10;;
76073;SDS011;64776;42.636;24.358;2023-03-14T11:28:49;6.93;;;2.45;;
76073;SDS011;64776;42.636;24.358;2023-03-14T11:31:54;6.10;;;2.22;;
76073;SDS011;64776;42.636;24.358;2023-03-14T11:35:01;9.10;;;4.40;;
76073;SDS011;64776;42.636;24.358;2023-03-14T11:38:09;13.65;;;7.13;;
76073;SDS011;64776;42.636;24.358;2023-03-14T11:41:14;8.02;;;2.67;;
76073;SDS011;64776;42.636;24.358;2023-03-14T11:47:21;11.00;;;3.85;;
76073;SDS011;64776;42.636;24.358;2023-03-14T11:50:28;7.55;;;2.83;;
76073;SDS011;64776;42.636;24.358;2023-03-14T11:53:35;8.38;;;2.92;;
76073;SDS011;64776;42.636;24.358;2023-03-14T11:56:44;8.75;;;2.17;;
76073;SDS011;64776;42.636;24.358;2023-03-14T11:59:52;9.02;;;3.60;;
76073;SDS011;64776;42.636;24.358;2023-03-14T12:03:01;12.13;;;3.13;;
76073;SDS011;64776;42.636;24.358;2023-03-14T12:06:15;12.07;;;4.70;;
76073;SDS011;64776;42.636;24.358;2023-03-14T12:12:23;8.10;;;2.17;;
76073;SDS011;64776;42.636;24.358;2023-03-14T12:15:27;28.25;;;10.85;;
76073;SDS011;64776;42.636;24.358;2023-03-14T12:18:28;12.85;;;6.18;;
76073;SDS011;64776;42.636;24.358;2023-03-14T12:21:43;6.65;;;2.42;;
76073;SDS011;64776;42.636;24.358;2023-03-14T12:24:48;7.97;;;3.28;;
76073;SDS011;64776;42.636;24.358;2023-03-14T12:31:38;16.30;;;7.40;;
76073;SDS011;64776;42.636;24.358;2023-03-14T12:34:41;9.60;;;3.38;;
76073;SDS011;64776;42.636;24.358;2023-03-14T12:37:44;5.15;;;1.38;;
76073;SDS011;64776;42.636;24.358;2023-03-14T12:40:53;9.85;;;4.55;;
76073;SDS011;64776;42.636;24.358;2023-03-14T12:47:46;3.53;;;1.13;;
76073;SDS011;64776;42.636;24.358;2023-03-14T12:50:53;5.57;;;1.98;;
76073;SDS011;64776;42.636;24.358;2023-03-14T12:54:09;13.65;;;4.95;;
76073;SDS011;64776;42.636;24.358;2023-03-14T12:57:35;14.63;;;6.32;;
76073;SDS011;64776;42.636;24.358;2023-03-14T13:00:42;12.60;;;4.28;;
76073;SDS011;64776;42.636;24.358;2023-03-14T13:03:43;6.88;;;2.60;;
76073;SDS011;64776;42.636;24.358;2023-03-14T13:06:48;17.52;;;5.13;;
76073;SDS011;64776;42.636;24.358;2023-03-14T13:09:53;13.05;;;5.85;;
76073;SDS011;64776;42.636;24.358;2023-03-14T13:13:01;8.60;;;3.67;;
76073;SDS011;64776;42.636;24.358;2023-03-14T13:16:03;6.40;;;2.40;;
76073;SDS011;64776;42.636;24.358;2023-03-14T13:19:09;7.75;;;2.92;;
76073;SDS011;64776;42.636;24.358;2023-03-14T13:22:16;10.05;;;3.40;;
76073;SDS011;64776;42.636;24.358;2023-03-14T13:25:22;5.95;;;1.83;;
76073;SDS011;64776;42.636;24.358;2023-03-14T13:28:23;10.15;;;3.72;;
76073;SDS011;64776;42.636;24.358;2023-03-14T13:31:24;13.10;;;3.95;;
76073;SDS011;64776;42.636;24.358;2023-03-14T13:34:26;13.20;;;3.72;;
76073;SDS011;64776;42.636;24.358;2023-03-14T13:37:29;14.60;;;7.50;;
76073;SDS011;64776;42.636;24.358;2023-03-14T13:40:32;11.18;;;5.65;;
76073;SDS011;64776;42.636;24.358;2023-03-14T13:43:35;23.05;;;10.27;;
76073;SDS011;64776;42.636;24.358;2023-03-14T13:46:39;14.40;;;6.25;;
76073;SDS011;64776;42.636;24.358;2023-03-14T13:49:40;34.67;;;14.18;;
76073;SDS011;64776;42.636;24.358;2023-03-14T13:52:41;22.75;;;8.93;;
76073;SDS011;64776;42.636;24.358;2023-03-14T13:55:43;9.68;;;2.85;;
76073;SDS011;64776;42.636;24.358;2023-03-14T13:58:44;8.65;;;2.60;;
76073;SDS011;64776;42.636;24.358;2023-03-14T14:01:45;6.72;;;2.03;;
76073;SDS011;64776;42.636;24.358;2023-03-14T14:04:47;13.02;;;3.70;;
76073;SDS011;64776;42.636;24.358;2023-03-14T14:07:48;9.10;;;3.42;;
76073;SDS011;64776;42.636;24.358;2023-03-14T14:10:52;11.27;;;5.00;;
76073;SDS011;64776;42.636;24.358;2023-03-14T14:13:57;9.25;;;3.67;;
76073;SDS011;64776;42.636;24.358;2023-03-14T14:16:59;7.20;;;2.53;;
76073;SDS011;64776;42.636;24.358;2023-03-14T14:20:02;8.88;;;3.30;;
76073;SDS011;64776;42.636;24.358;2023-03-14T14:23:07;8.15;;;3.97;;
76073;SDS011;64776;42.636;24.358;2023-03-14T14:26:14;9.98;;;3.72;;
76073;SDS011;64776;42.636;24.358;2023-03-14T14:29:25;6.85;;;3.83;;
76073;SDS011;64776;42.636;24.358;2023-03-14T14:32:34;9.80;;;3.40;;
76073;SDS011;64776;42.636;24.358;2023-03-14T14:35:36;8.23;;;3.72;;
76073;SDS011;64776;42.636;24.358;2023-03-14T14:38:37;11.38;;;3.67;;
76073;SDS011;64776;42.636;24.358;2023-03-14T14:41:40;7.22;;;2.80;;
76073;SDS011;64776;42.636;24.358;2023-03-14T14:44:42;9.05;;;3.38;;
76073;SDS011;64776;42.636;24.358;2023-03-14T14:47:50;23.20;;;8.70;;
76073;SDS011;64776;42.636;24.358;2023-03-14T14:50:57;30.55;;;12.63;;
76073;SDS011;64776;42.636;24.358;2023-03-14T14:54:04;14.02;;;4.57;;
76073;SDS011;64776;42.636;24.358;2023-03-14T14:57:18;23.75;;;7.57;;
76073;SDS011;64776;42.636;24.358;2023-03-14T15:00:21;11.20;;;4.45;;
76073;SDS011;64776;42.636;24.358;2023-03-14T15:03:24;32.67;;;12.00;;
76073;SDS011;64776;42.636;24.358;2023-03-14T15:06:28;28.95;;;10.38;;
76073;SDS011;64776;42.636;24.358;2023-03-14T15:09:30;32.97;;;15.18;;
76073;SDS011;64776;42.636;24.358;2023-03-14T15:12:32;21.00;;;8.48;;
76073;SDS011;64776;42.636;24.358;2023-03-14T15:15:33;20.10;;;8.88;;
76073;SDS011;64776;42.636;24.358;2023-03-14T15:18:34;44.20;;;15.85;;
76073;SDS011;64776;42.636;24.358;2023-03-14T15:21:34;30.95;;;12.27;;
76073;SDS011;64776;42.636;24.358;2023-03-14T15:24:35;13.90;;;6.85;;
76073;SDS011;64776;42.636;24.358;2023-03-14T15:27:38;26.23;;;8.68;;
76073;SDS011;64776;42.636;24.358;2023-03-14T15:30:40;42.80;;;12.52;;
76073;SDS011;64776;42.636;24.358;2023-03-14T15:33:40;40.45;;;13.18;;
76073;SDS011;64776;42.636;24.358;2023-03-14T15:36:42;96.97;;;35.75;;
76073;SDS011;64776;42.636;24.358;2023-03-14T15:39:43;70.28;;;25.92;;
76073;SDS011;64776;42.636;24.358;2023-03-14T15:42:45;46.03;;;15.20;;
76073;SDS011;64776;42.636;24.358;2023-03-14T15:45:46;34.10;;;11.77;;
76073;SDS011;64776;42.636;24.358;2023-03-14T15:48:47;16.50;;;5.93;;
76073;SDS011;64776;42.636;24.358;2023-03-14T15:51:49;24.13;;;8.75;;
76073;SDS011;64776;42.636;24.358;2023-03-14T15:54:49;25.13;;;8.88;;
76073;SDS011;64776;42.636;24.358;2023-03-14T15:57:52;34.08;;;13.23;;
76073;SDS011;64776;42.636;24.358;2023-03-14T16:00:52;77.13;;;25.55;;
76073;SDS011;64776;42.636;24.358;2023-03-14T16:03:53;119.38;;;40.70;;
76073;SDS011;64776;42.636;24.358;2023-03-14T16:06:54;105.70;;;40.10;;
76073;SDS011;64776;42.636;24.358;2023-03-14T16:09:55;84.90;;;34.28;;
76073;SDS011;64776;42.636;24.358;2023-03-14T16:12:57;20.90;;;9.65;;
76073;SDS011;64776;42.636;24.358;2023-03-14T16:15:59;85.82;;;30.63;;
76073;SDS011;64776;42.636;24.358;2023-03-14T16:19:00;51.15;;;19.48;;
76073;SDS011;64776;42.636;24.358;2023-03-14T16:22:01;33.13;;;17.90;;
76073;SDS011;64776;42.636;24.358;2023-03-14T16:25:02;19.80;;;9.38;;
76073;SDS011;64776;42.636;24.358;2023-03-14T16:28:05;36.28;;;18.60;;
76073;SDS011;64776;42.636;24.358;2023-03-14T16:31:06;42.00;;;21.30;;
76073;SDS011;64776;42.636;24.358;2023-03-14T16:34:08;38.85;;;21.13;;
76073;SDS011;64776;42.636;24.358;2023-03-14T16:37:09;70.47;;;29.92;;
76073;SDS011;64776;42.636;24.358;2023-03-14T16:40:10;58.28;;;22.77;;
76073;SDS011;64776;42.636;24.358;2023-03-14T16:43:13;37.10;;;17.35;;
76073;SDS011;64776;42.636;24.358;2023-03-14T16:46:14;34.25;;;16.02;;
76073;SDS011;64776;42.636;24.358;2023-03-14T16:49:16;61.67;;;26.67;;
76073;SDS011;64776;42.636;24.358;2023-03-14T16:52:17;54.55;;;21.75;;
76073;SDS011;64776;42.636;24.358;2023-03-14T16:55:18;26.85;;;13.48;;
76073;SDS011;64776;42.636;24.358;2023-03-14T16:58:20;37.83;;;15.70;;
76073;SDS011;64776;42.636;24.358;2023-03-14T17:01:21;38.50;;;16.55;;
76073;SDS011;64776;42.636;24.358;2023-03-14T17:04:22;44.45;;;18.35;;
76073;SDS011;64776;42.636;24.358;2023-03-14T17:07:23;41.30;;;18.52;;
76073;SDS011;64776;42.636;24.358;2023-03-14T17:10:24;50.40;;;24.67;;
76073;SDS011;64776;42.636;24.358;2023-03-14T17:13:26;27.30;;;14.48;;
76073;SDS011;64776;42.636;24.358;2023-03-14T17:16:27;52.97;;;24.08;;
76073;SDS011;64776;42.636;24.358;2023-03-14T17:19:28;54.65;;;24.15;;
76073;SDS011;64776;42.636;24.358;2023-03-14T17:22:29;65.28;;;28.45;;
76073;SDS011;64776;42.636;24.358;2023-03-14T17:25:30;42.58;;;21.30;;
76073;SDS011;64776;42.636;24.358;2023-03-14T17:28:32;45.58;;;22.55;;
76073;SDS011;64776;42.636;24.358;2023-03-14T17:31:33;45.60;;;23.15;;
76073;SDS011;64776;42.636;24.358;2023-03-14T17:34:34;32.17;;;18.88;;
76073;SDS011;64776;42.636;24.358;2023-03-14T17:37:35;58.40;;;25.08;;
76073;SDS011;64776;42.636;24.358;2023-03-14T17:40:36;27.55;;;14.32;;
76073;SDS011;64776;42.636;24.358;2023-03-14T17:43:38;29.00;;;12.77;;
76073;SDS011;64776;42.636;24.358;2023-03-14T17:46:39;20.48;;;11.02;;
76073;SDS011;64776;42.636;24.358;2023-03-14T17:49:40;14.90;;;6.45;;
76073;SDS011;64776;42.636;24.358;2023-03-14T17:52:41;18.13;;;7.22;;
76073;SDS011;64776;42.636;24.358;2023-03-14T17:55:43;32.55;;;16.60;;
76073;SDS011;64776;42.636;24.358;2023-03-14T17:58:45;43.95;;;21.63;;
76073;SDS011;64776;42.636;24.358;2023-03-14T18:01:46;43.92;;;20.40;;
76073;SDS011;64776;42.636;24.358;2023-03-14T18:04:47;44.47;;;21.42;;